Latest Weather Observations for Scotts Peak

IDT60801

Issued at 11:51 pm EST Wednesday 14 April 2021 (issued every 10 minutes, with the page automatically refreshed every 10 minutes)

About weather observations | Map of weather stations | Latest weather observations for TAS | Other Formats
Station Details ID: 097083 Name: SCOTTS PEAK DAM Lat: -43.04 Lon: 146.27 Height: 408.0 m
Data from the previous 72 hours. | See also: Recent months at Scotts Peak
Date/Time
EST
Temp
°C
App
Temp
°C
Dew
Point
°C
Rel
Hum
%
Delta-T
°C
Wind Press
QNH
hPa
Press
MSL
hPa
Rain since
9am
mm
Dir  Spd
km/h
Gust
km/h
Spd
kts
Gust
kts
14/11:30pm 7.5 - - - - NW 46 65 25 35 - - 6.2
14/11:15pm 7.7 - - - - NW 44 63 24 34 - - 6.0
14/11:00pm 7.7 -1.0 7.7 100 0.0 NW 43 59 23 32 - - 6.0
14/10:30pm 7.5 - - - - NW 43 57 23 31 - - 6.0
14/10:00pm 7.2 - - - - NW 35 54 19 29 - - 6.0
14/09:40pm 7.4 - - - - NW 43 65 23 35 - - 6.0
14/09:30pm 7.5 - - - - NW 44 57 24 31 - - 6.0
14/09:00pm 7.5 - - - - NW 48 67 26 36 - - 6.0
14/08:52pm 7.6 - - - - NW 46 67 25 36 - - 6.0
14/08:46pm 7.6 - - - - NW 33 61 18 33 - - 6.0
14/08:30pm 7.4 - - - - NNW 26 43 14 23 - - 6.0
14/08:17pm 7.3 - - - - NNW 28 46 15 25 - - 6.0
14/08:00pm 7.4 - - - - NNW 26 35 14 19 - - 6.0
14/07:30pm 7.4 - - - - NW 30 43 16 23 - - 6.0
14/07:10pm 7.3 - - - - WNW 35 61 19 33 - - 5.8
14/07:06pm 7.6 1.3 7.6 100 0.0 NW 30 57 16 31 - - 5.8
14/07:00pm 7.8 - 7.9 - - NW 28 44 15 24 - - 5.8
14/06:30pm 7.9 3.2 7.9 100 0.0 NW 22 35 12 19 - - 5.8
14/06:05pm 8.0 - - - - NNW 33 54 18 29 - - 5.8
14/06:00pm 7.9 0.8 7.9 100 0.0 NNW 35 48 19 26 - - 5.8
14/05:30pm 8.1 1.6 8.1 100 0.0 NW 32 48 17 26 - - 5.8
14/05:13pm 8.7 2.9 7.9 95 0.4 NW 28 46 15 25 - - 5.8
14/05:12pm 8.6 2.8 7.8 95 0.4 NW 28 44 15 24 - - 5.8
14/05:00pm 8.6 4.7 8.6 100 0.0 NW 19 28 10 15 - - 5.8
14/04:59pm 8.7 5.2 8.7 100 0.0 NW 17 28 9 15 - - 5.8
14/04:41pm 9.0 3.4 8.6 97 0.2 WNW 28 61 15 33 - - 5.8
14/04:30pm 9.0 3.8 8.7 98 0.1 WNW 26 46 14 25 - - 5.8
14/04:00pm 8.8 - - - - WNW 54 82 29 44 - - 5.8
14/03:30pm 9.5 - - - - WNW 50 70 27 38 - - 5.8
14/03:00pm 9.9 - - - - WNW 54 74 29 40 - - 5.8
14/02:30pm 9.9 - - - - WNW 54 80 29 43 - - 5.6
14/02:00pm 10.2 - - - - WNW 61 82 33 44 - - 5.6
14/01:49pm 10.3 - - - - WNW 63 83 34 45 - - 5.6
14/01:45pm 10.1 - - - - WNW 56 83 30 45 - - 5.6
14/01:39pm 10.2 - - - - W 48 67 26 36 - - 5.6
14/01:30pm 9.6 - - - - W 52 78 28 42 - - 5.2
14/01:26pm 9.9 - - - - WNW 57 78 31 42 - - 5.0
14/01:00pm 10.5 - - - - NW 72 93 39 50 - - 4.8
14/12:58pm 9.6 - - - - NW 72 93 39 50 - - 4.8
14/12:56pm 9.5 - - - - NW 70 93 38 50 - - 4.8
14/12:35pm 10.2 - - - - WNW 59 78 32 42 - - 3.8
14/12:30pm 10.6 - - - - NW 65 80 35 43 - - 3.6
14/12:00pm 9.7 - - - - NW 65 89 35 48 - - 3.4
14/11:30am 10.2 - - - - NW 65 87 35 47 - - 2.6
14/11:00am 10.4 - - - - NW 61 83 33 45 - - 2.4
14/10:30am 9.6 - - - - WNW 69 95 37 51 - - 2.2
14/10:13am 10.2 - - - - NW 72 93 39 50 - - 1.4
14/10:12am 10.0 - - - - NW 72 93 39 50 - - 1.4
14/10:00am 10.3 - - - - NW 82 106 44 57 - - 1.4
14/09:30am 9.5 - - - - NW 69 95 37 51 - - 1.0
14/09:26am 9.7 - - - - NW 59 91 32 49 - - 0.8
14/09:22am 9.9 - - - - NW 52 72 28 39 - - 0.8
14/09:11am 10.1 - - - - WNW 65 96 35 52 - - 0.4
14/09:00am 10.0 - - - - NW 74 107 40 58 - - 9.8
14/08:30am 9.7 - - - - NW 70 102 38 55 - - 9.8
14/08:00am 10.0 - - - - NNW 67 95 36 51 - - 9.2
14/07:33am 10.2 - - - - NW 69 87 37 47 - - 8.8
14/07:30am 10.2 - - - - NNW 69 85 37 46 - - 8.8
14/07:00am 10.0 - - - - NNW 63 85 34 46 - - 8.4
14/06:30am 10.0 - - - - NNW 65 89 35 48 - - 8.2
14/06:00am 9.9 - - - - NNW 61 82 33 44 - - 8.0
14/05:35am 10.0 - - - - NNW 59 80 32 43 - - 7.8
14/05:30am 9.9 - - - - NNW 57 70 31 38 - - 7.8
14/05:14am 10.2 - - - - NNW 65 93 35 50 - - 7.8
14/05:00am 9.8 - - - - NNW 59 74 32 40 - - 7.8
14/04:30am 9.4 - - - - NNW 56 70 30 38 - - 7.8
14/04:22am 9.1 - - - - NW 48 63 26 34 - - 7.8
14/04:19am 9.0 - - - - NW 50 65 27 35 - - 7.8
14/04:02am 9.5 - - - - NW 63 82 34 44 - - 7.8
14/04:00am 9.7 - - - - NW 67 82 36 44 - - 7.8
14/03:48am 10.0 - - - - NW 50 74 27 40 - - 7.6
14/03:43am 10.4 - - - - NW 46 59 25 32 - - 7.4
14/03:30am 10.5 - - - - NNW 43 54 23 29 - - 6.8
14/03:09am 10.4 - - - - NNW 50 69 27 37 - - 5.4
14/03:00am 10.5 - - - - NNW 54 65 29 35 - - 5.0
14/02:30am 10.6 - - - - NNW 52 63 28 34 - - 3.8
14/02:00am 10.6 - - - - NNW 56 65 30 35 - - 3.8
14/01:37am 10.5 - - - - NNW 54 76 29 41 - - 3.8
14/01:30am 10.5 - - - - NNW 54 65 29 35 - - 3.8
14/01:13am 10.5 - - - - NNW 56 80 30 43 - - 3.6
14/01:00am 10.6 - - - - NNW 52 65 28 35 - - 3.4
14/12:30am 10.3 - - - - NNW 50 61 27 33 - - 3.4
14/12:00am 10.2 - - - - NNW 52 63 28 34 - - 2.8
 
Date/Time
EST
Temp
°C
App
Temp
°C
Dew
Point
°C
Rel
Hum
%
Delta-T
°C
Wind Press
QNH
hPa
Press
MSL
hPa
Rain since
9am
mm
Dir  Spd
km/h
Gust
km/h
Spd
kts
Gust
kts
13/11:30pm 10.9 1.7 10.9 100 0.0 NNW 50 57 27 31 - - 2.4
13/11:00pm 10.6 1.7 10.6 100 0.0 NNW 48 63 26 34 - - 2.4
13/10:30pm 10.8 0.1 10.3 97 0.3 NNW 57 83 31 45 - - 2.4
13/10:20pm 10.6 0.9 10.6 100 0.0 NNW 52 87 28 47 - - 2.4
13/10:04pm 10.0 - - - - NNW 46 69 25 37 - - 2.4
13/10:00pm 9.9 - - - - NNW 48 65 26 35 - - 2.4
13/09:33pm 9.5 - - - - N 52 70 28 38 - - 2.4
13/09:30pm 9.5 - - - - N 52 67 28 36 - - 2.4
13/09:00pm 9.1 - - - - N 48 69 26 37 - - 2.0
13/08:58pm 9.1 - - - - N 50 69 27 37 - - 1.8
13/08:48pm 9.6 - - - - N 41 69 22 37 - - 1.4
13/08:30pm 9.2 - - - - N 30 57 16 31 - - 1.2
13/08:21pm 9.1 - - - - N 28 48 15 26 - - 1.2
13/08:00pm 9.5 4.5 9.5 100 0.0 N 26 39 14 21 - - 0.6
13/07:30pm 11.0 7.0 9.1 88 1.0 N 20 32 11 17 - - 0.0
13/07:00pm 11.0 6.0 9.4 90 0.8 N 26 33 14 18 - - 0.0
13/06:30pm 11.1 6.0 9.2 88 1.0 N 26 35 14 19 - - 0.0
13/06:00pm 11.1 6.8 9.4 89 0.9 N 22 35 12 19 - - 0.0
13/05:30pm 11.2 7.4 9.8 91 0.7 NNE 20 32 11 17 - - 0.0
13/05:00pm 11.3 6.6 9.4 88 1.0 N 24 35 13 19 - - 0.0
13/04:30pm 11.4 7.2 9.8 90 0.8 N 22 32 12 17 - - 0.0
13/04:00pm 11.7 7.9 9.8 88 1.0 N 20 28 11 15 - - 0.0
13/03:30pm 12.3 10.1 10.7 90 0.8 NNE 13 20 7 11 - - 0.0
13/03:00pm 12.0 8.8 9.9 87 1.1 N 17 28 9 15 - - 0.0
13/02:30pm 11.6 7.7 9.5 87 1.1 N 20 26 11 14 - - 0.0
13/02:00pm 12.3 10.8 10.4 88 1.0 NNW 9 15 5 8 - - 0.0
13/01:30pm 12.3 10.8 10.4 88 1.0 N 9 13 5 7 - - 0.0
13/01:00pm 12.0 10.3 11.1 94 0.5 NNW 11 13 6 7 - - 0.0
13/12:30pm 12.4 10.7 12.4 100 0.0 NNW 13 19 7 10 - - 0.0
13/12:00pm 11.1 10.1 11.1 100 0.0 NNW 7 11 4 6 - - 0.0
13/11:30am 10.8 9.5 10.0 95 0.4 NNW 7 11 4 6 - - 0.0
13/11:00am 10.8 9.5 9.9 94 0.5 NNW 7 11 4 6 - - 0.0
13/10:30am 9.7 8.5 9.7 100 0.0 WNW 6 9 3 5 - - 0.0
13/10:00am 8.6 - - - - S 2 7 1 4 - - 0.0
13/09:30am 8.3 - - - - ESE 2 7 1 4 - - 0.0
13/09:00am 7.9 - - - - ESE 6 9 3 5 - - 0.2
13/08:30am 7.4 - - - - NE 6 11 3 6 - - 0.2
13/08:00am 6.3 - - - - E 7 9 4 5 - - 0.2
13/07:30am 5.9 - - - - E 6 7 3 4 - - 0.2
13/07:00am 5.2 - - - - ESE 7 9 4 5 - - 0.2
13/06:30am 5.5 - - - - ESE 7 9 4 5 - - 0.2
13/06:00am 5.4 - - - - ESE 6 7 3 4 - - 0.0
13/05:30am 5.7 - - - - ENE 9 11 5 6 - - 0.0
13/05:00am 6.2 - - - - ESE 9 11 5 6 - - 0.0
13/04:30am 6.7 - - - - ENE 6 11 3 6 - - 0.0
13/04:00am 6.6 - - - - NE 7 11 4 6 - - 0.0
13/03:30am 7.0 - - - - ESE 7 11 4 6 - - 0.0
13/03:00am 7.1 - - - - SSE 9 11 5 6 - - 0.0
13/02:30am 7.2 - - - - CALM 0 7 0 4 - - 0.0
13/02:00am 7.4 - - - - SSE 6 7 3 4 - - 0.0
13/01:30am 7.4 - - - - ESE 7 9 4 5 - - 0.0
13/01:00am 7.3 - - - - SE 7 9 4 5 - - 0.0
13/12:30am 7.2 - - - - ESE 9 11 5 6 - - 0.0
13/12:00am 7.4 - - - - E 9 9 5 5 - - 0.0
 
Date/Time
EST
Temp
°C
App
Temp
°C
Dew
Point
°C
Rel
Hum
%
Delta-T
°C
Wind Press
QNH
hPa
Press
MSL
hPa
Rain since
9am
mm
Dir  Spd
km/h
Gust
km/h
Spd
kts
Gust
kts
12/11:30pm 7.9 - - - - CALM 0 0 0 0 - - 0.0
12/11:00pm 7.9 - - - - NW 6 9 3 5 - - 0.0
12/10:30pm 7.5 - - - - WNW 7 9 4 5 - - 0.0
12/10:00pm 7.7 - - - - WNW 13 15 7 8 - - 0.0
12/09:30pm 7.8 - - - - NW 9 15 5 8 - - 0.0
12/09:00pm 8.3 - - - - W 9 11 5 6 - - 0.0
12/08:30pm 8.3 - - - - WNW 9 15 5 8 - - 0.0
12/08:00pm 8.1 - - - - WNW 9 17 5 9 - - 0.0
12/07:30pm 8.2 - - - - NW 9 13 5 7 - - 0.0
12/07:00pm 8.7 - - - - WNW 13 15 7 8 - - 0.0
12/06:30pm 8.6 - - - - W 13 17 7 9 - - 0.0
12/06:00pm 8.7 - - - - W 11 17 6 9 - - 0.0
12/05:30pm 9.3 5.9 9.2 99 0.1 WSW 17 26 9 14 - - 0.0
12/05:00pm 10.9 8.5 10.1 95 0.4 WSW 13 20 7 11 - - 0.0
12/04:30pm 12.7 10.9 10.8 88 1.0 WSW 11 19 6 10 - - 0.0
12/04:00pm 10.8 7.2 9.7 93 0.6 WSW 19 26 10 14 - - 0.0
12/03:30pm 11.5 6.8 9.1 85 1.2 SW 24 35 13 19 - - 0.0
12/03:00pm 12.9 10.2 10.4 85 1.3 W 15 24 8 13 - - 0.0
12/02:30pm 11.2 8.5 10.4 95 0.4 W 15 20 8 11 - - 0.0
12/02:00pm 11.1 8.2 11.1 100 0.0 WNW 17 22 9 12 - - 0.0
12/01:30pm 10.6 7.6 10.6 100 0.0 WSW 17 22 9 12 - - 0.0
12/01:00pm 11.0 9.0 10.2 95 0.4 SW 11 15 6 8 - - 0.0
12/12:30pm 11.7 8.1 9.8 88 1.0 WSW 19 24 10 13 - - 0.0
12/12:00pm 11.2 8.7 9.8 91 0.7 W 13 20 7 11 - - 0.0
12/11:30am 10.5 8.0 9.7 95 0.4 WSW 13 20 7 11 - - 0.0
12/11:00am 9.5 - - - - WSW 15 20 8 11 - - 0.0
12/10:30am 9.1 5.1 9.1 100 0.0 SW 20 28 11 15 - - 0.0
12/10:00am 8.7 5.2 8.7 100 0.0 SW 17 24 9 13 - - 0.0
12/09:30am 8.4 4.2 8.4 100 0.0 SW 20 33 11 18 - - 0.0
12/09:00am 8.2 - - - - SW 22 28 12 15 - - 14.4
12/08:30am 7.6 - - - - SW 17 20 9 11 - - 14.4
12/08:00am 7.2 - - - - SW 22 26 12 14 - - 14.4
12/07:30am 6.8 - - - - SW 20 22 11 12 - - 14.4
12/07:00am 6.3 - - - - SW 17 24 9 13 - - 14.4
12/06:30am 6.2 - - - - SW 19 22 10 12 - - 14.4
12/06:00am 6.2 - - - - WSW 19 24 10 13 - - 14.4
12/05:30am 6.3 - - - - WSW 15 20 8 11 - - 14.2
12/05:00am 6.3 - - - - WSW 17 22 9 12 - - 14.2
12/04:30am 6.0 - - - - WSW 17 20 9 11 - - 14.2
12/04:00am 6.0 - - - - SW 19 28 10 15 - - 14.2
12/03:30am 6.0 - - - - WSW 15 22 8 12 - - 14.2
12/03:00am 5.9 - - - - W 13 20 7 11 - - 14.0
12/02:30am 5.9 - - - - SW 11 19 6 10 - - 14.0
12/02:00am 5.7 - - - - W 13 20 7 11 - - 14.0
12/01:30am 5.6 - - - - W 15 22 8 12 - - 14.0
12/01:00am 5.6 2.1 5.6 100 0.0 W 13 22 7 12 - - 14.0
12/12:30am 5.7 2.3 5.7 100 0.0 WSW 13 22 7 12 - - 14.0
12/12:00am 5.4 2.3 5.4 100 0.0 W 11 17 6 9 - - 14.0

Other formats

Comma delimited format used in spreadsheet applications
http://www.bom.gov.au/fwo/IDT60801/IDT60801.95958.axf

JavaScript Object Notation format (JSON) in row-major order
http://www.bom.gov.au/fwo/IDT60801/IDT60801.95958.json

Data quality

Most of these data are generated automatically and are frequently updated. Quality checks on data are not normally performed. It is possible for incorrect values to appear. Refer to information at About Latest Weather Observations and please check the disclaimer before using these data.